sensor_id;sensor_type;location;lat;lon;timestamp;P1;durP1;ratioP1;P2;durP2;ratioP2
15063;SDS011;7631;52.088;5.088;2023-05-19T00:01:41;3.53;;;2.20;;
15063;SDS011;7631;52.088;5.088;2023-05-19T00:04:08;3.63;;;2.10;;
15063;SDS011;7631;52.088;5.088;2023-05-19T00:06:33;4.03;;;2.40;;
15063;SDS011;7631;52.088;5.088;2023-05-19T00:09:04;5.00;;;2.57;;
15063;SDS011;7631;52.088;5.088;2023-05-19T00:11:29;5.47;;;2.37;;
15063;SDS011;7631;52.088;5.088;2023-05-19T00:13:55;4.53;;;2.37;;
15063;SDS011;7631;52.088;5.088;2023-05-19T00:16:21;3.50;;;2.40;;
15063;SDS011;7631;52.088;5.088;2023-05-19T00:18:47;5.57;;;2.60;;
15063;SDS011;7631;52.088;5.088;2023-05-19T00:21:12;4.30;;;2.27;;
15063;SDS011;7631;52.088;5.088;2023-05-19T00:23:38;5.23;;;2.50;;
15063;SDS011;7631;52.088;5.088;2023-05-19T00:26:03;3.47;;;2.30;;
15063;SDS011;7631;52.088;5.088;2023-05-19T00:28:28;4.50;;;2.10;;
15063;SDS011;7631;52.088;5.088;2023-05-19T00:30:53;3.50;;;2.33;;
15063;SDS011;7631;52.088;5.088;2023-05-19T00:33:19;3.80;;;2.40;;
15063;SDS011;7631;52.088;5.088;2023-05-19T00:35:44;3.67;;;2.50;;
15063;SDS011;7631;52.088;5.088;2023-05-19T00:38:10;4.30;;;2.53;;
15063;SDS011;7631;52.088;5.088;2023-05-19T00:40:35;4.80;;;2.60;;
15063;SDS011;7631;52.088;5.088;2023-05-19T00:43:00;3.73;;;2.30;;
15063;SDS011;7631;52.088;5.088;2023-05-19T00:45:26;3.17;;;2.20;;
15063;SDS011;7631;52.088;5.088;2023-05-19T00:47:51;5.37;;;2.60;;
15063;SDS011;7631;52.088;5.088;2023-05-19T00:50:16;4.43;;;2.40;;
15063;SDS011;7631;52.088;5.088;2023-05-19T00:52:42;4.17;;;2.10;;
15063;SDS011;7631;52.088;5.088;2023-05-19T00:55:07;3.23;;;2.50;;
15063;SDS011;7631;52.088;5.088;2023-05-19T00:57:32;4.57;;;2.33;;
15063;SDS011;7631;52.088;5.088;2023-05-19T00:59:58;3.37;;;2.40;;
15063;SDS011;7631;52.088;5.088;2023-05-19T01:02:23;4.47;;;2.20;;
15063;SDS011;7631;52.088;5.088;2023-05-19T01:04:49;5.80;;;2.73;;
15063;SDS011;7631;52.088;5.088;2023-05-19T01:07:14;3.20;;;2.20;;
15063;SDS011;7631;52.088;5.088;2023-05-19T01:09:40;2.70;;;2.07;;
15063;SDS011;7631;52.088;5.088;2023-05-19T01:12:05;4.83;;;2.63;;
15063;SDS011;7631;52.088;5.088;2023-05-19T01:14:31;4.53;;;2.27;;
15063;SDS011;7631;52.088;5.088;2023-05-19T01:32:27;3.50;;;2.20;;
15063;SDS011;7631;52.088;5.088;2023-05-19T01:34:53;4.57;;;2.40;;
15063;SDS011;7631;52.088;5.088;2023-05-19T01:37:19;3.90;;;2.50;;
15063;SDS011;7631;52.088;5.088;2023-05-19T01:39:45;3.53;;;2.40;;
15063;SDS011;7631;52.088;5.088;2023-05-19T01:42:10;4.57;;;2.37;;
15063;SDS011;7631;52.088;5.088;2023-05-19T01:44:36;4.17;;;2.20;;
15063;SDS011;7631;52.088;5.088;2023-05-19T01:47:01;4.27;;;2.50;;
15063;SDS011;7631;52.088;5.088;2023-05-19T01:49:27;4.23;;;2.27;;
15063;SDS011;7631;52.088;5.088;2023-05-19T01:51:53;5.17;;;2.40;;
15063;SDS011;7631;52.088;5.088;2023-05-19T01:54:18;5.10;;;2.70;;
15063;SDS011;7631;52.088;5.088;2023-05-19T01:59:24;5.53;;;2.60;;
15063;SDS011;7631;52.088;5.088;2023-05-19T02:01:52;4.23;;;2.40;;
15063;SDS011;7631;52.088;5.088;2023-05-19T02:09:39;3.70;;;2.53;;
15063;SDS011;7631;52.088;5.088;2023-05-19T02:14:54;6.47;;;2.57;;
15063;SDS011;7631;52.088;5.088;2023-05-19T02:17:23;4.17;;;2.37;;
15063;SDS011;7631;52.088;5.088;2023-05-19T02:19:51;3.03;;;2.10;;
15063;SDS011;7631;52.088;5.088;2023-05-19T02:22:16;3.60;;;2.60;;
15063;SDS011;7631;52.088;5.088;2023-05-19T02:24:41;4.67;;;2.70;;
15063;SDS011;7631;52.088;5.088;2023-05-19T02:27:08;4.03;;;2.47;;
15063;SDS011;7631;52.088;5.088;2023-05-19T02:29:33;3.97;;;2.47;;
15063;SDS011;7631;52.088;5.088;2023-05-19T02:31:59;4.70;;;2.30;;
15063;SDS011;7631;52.088;5.088;2023-05-19T02:34:25;4.00;;;2.20;;
15063;SDS011;7631;52.088;5.088;2023-05-19T02:36:50;3.70;;;2.20;;
15063;SDS011;7631;52.088;5.088;2023-05-19T02:39:16;5.00;;;2.63;;
15063;SDS011;7631;52.088;5.088;2023-05-19T02:41:41;5.53;;;2.57;;
15063;SDS011;7631;52.088;5.088;2023-05-19T02:44:06;3.53;;;2.40;;
15063;SDS011;7631;52.088;5.088;2023-05-19T02:46:31;3.97;;;2.50;;
15063;SDS011;7631;52.088;5.088;2023-05-19T02:48:57;4.10;;;2.70;;
15063;SDS011;7631;52.088;5.088;2023-05-19T02:51:22;4.87;;;2.27;;
15063;SDS011;7631;52.088;5.088;2023-05-19T02:53:48;4.17;;;2.50;;
15063;SDS011;7631;52.088;5.088;2023-05-19T02:56:13;4.93;;;2.57;;
15063;SDS011;7631;52.088;5.088;2023-05-19T02:58:38;4.47;;;2.50;;
15063;SDS011;7631;52.088;5.088;2023-05-19T03:01:04;3.63;;;2.30;;
15063;SDS011;7631;52.088;5.088;2023-05-19T03:03:29;5.13;;;2.53;;
15063;SDS011;7631;52.088;5.088;2023-05-19T03:05:54;3.60;;;2.10;;
15063;SDS011;7631;52.088;5.088;2023-05-19T03:08:20;3.83;;;2.70;;
15063;SDS011;7631;52.088;5.088;2023-05-19T03:10:45;4.27;;;2.30;;
15063;SDS011;7631;52.088;5.088;2023-05-19T03:13:10;4.03;;;2.40;;
15063;SDS011;7631;52.088;5.088;2023-05-19T03:15:36;5.20;;;2.70;;
15063;SDS011;7631;52.088;5.088;2023-05-19T03:18:01;4.03;;;3.10;;
15063;SDS011;7631;52.088;5.088;2023-05-19T03:20:26;6.20;;;2.73;;
15063;SDS011;7631;52.088;5.088;2023-05-19T03:22:51;4.53;;;2.60;;
15063;SDS011;7631;52.088;5.088;2023-05-19T03:25:17;3.53;;;2.60;;
15063;SDS011;7631;52.088;5.088;2023-05-19T03:27:42;3.60;;;2.63;;
15063;SDS011;7631;52.088;5.088;2023-05-19T03:30:07;4.03;;;2.40;;
15063;SDS011;7631;52.088;5.088;2023-05-19T03:32:33;6.00;;;2.50;;
15063;SDS011;7631;52.088;5.088;2023-05-19T03:35:01;7.30;;;2.47;;
15063;SDS011;7631;52.088;5.088;2023-05-19T03:37:26;4.50;;;2.83;;
15063;SDS011;7631;52.088;5.088;2023-05-19T03:39:51;4.70;;;2.47;;
15063;SDS011;7631;52.088;5.088;2023-05-19T03:42:17;4.17;;;2.70;;
15063;SDS011;7631;52.088;5.088;2023-05-19T03:44:42;4.03;;;2.50;;
15063;SDS011;7631;52.088;5.088;2023-05-19T03:47:08;5.63;;;3.13;;
15063;SDS011;7631;52.088;5.088;2023-05-19T03:49:33;4.53;;;2.70;;
15063;SDS011;7631;52.088;5.088;2023-05-19T03:51:58;4.63;;;2.63;;
15063;SDS011;7631;52.088;5.088;2023-05-19T03:54:27;3.80;;;2.37;;
15063;SDS011;7631;52.088;5.088;2023-05-19T03:56:52;4.40;;;2.40;;
15063;SDS011;7631;52.088;5.088;2023-05-19T03:59:17;4.03;;;2.60;;
15063;SDS011;7631;52.088;5.088;2023-05-19T04:01:42;3.27;;;2.43;;
15063;SDS011;7631;52.088;5.088;2023-05-19T04:04:07;3.93;;;2.50;;
15063;SDS011;7631;52.088;5.088;2023-05-19T04:06:33;5.07;;;2.67;;
15063;SDS011;7631;52.088;5.088;2023-05-19T04:08:58;3.67;;;2.67;;
15063;SDS011;7631;52.088;5.088;2023-05-19T04:11:23;3.73;;;2.90;;
15063;SDS011;7631;52.088;5.088;2023-05-19T04:13:49;4.70;;;2.47;;
15063;SDS011;7631;52.088;5.088;2023-05-19T04:16:14;5.30;;;2.50;;
15063;SDS011;7631;52.088;5.088;2023-05-19T04:18:39;4.50;;;2.80;;
15063;SDS011;7631;52.088;5.088;2023-05-19T04:21:04;5.03;;;2.93;;
15063;SDS011;7631;52.088;5.088;2023-05-19T04:23:32;6.23;;;2.60;;
15063;SDS011;7631;52.088;5.088;2023-05-19T04:25:57;5.57;;;2.73;;
15063;SDS011;7631;52.088;5.088;2023-05-19T04:28:23;3.70;;;2.73;;
15063;SDS011;7631;52.088;5.088;2023-05-19T04:30:48;4.23;;;2.60;;
15063;SDS011;7631;52.088;5.088;2023-05-19T04:33:14;4.77;;;3.10;;
15063;SDS011;7631;52.088;5.088;2023-05-19T04:35:39;3.43;;;2.50;;
15063;SDS011;7631;52.088;5.088;2023-05-19T04:38:05;3.37;;;2.53;;
15063;SDS011;7631;52.088;5.088;2023-05-19T04:40:30;5.10;;;2.60;;
15063;SDS011;7631;52.088;5.088;2023-05-19T04:42:56;3.50;;;2.67;;
15063;SDS011;7631;52.088;5.088;2023-05-19T04:45:22;3.23;;;2.60;;
15063;SDS011;7631;52.088;5.088;2023-05-19T04:47:47;3.53;;;2.67;;
15063;SDS011;7631;52.088;5.088;2023-05-19T04:50:12;4.43;;;2.97;;
15063;SDS011;7631;52.088;5.088;2023-05-19T04:52:38;6.50;;;3.17;;
15063;SDS011;7631;52.088;5.088;2023-05-19T04:55:03;5.87;;;2.70;;
15063;SDS011;7631;52.088;5.088;2023-05-19T04:57:28;3.83;;;2.60;;
15063;SDS011;7631;52.088;5.088;2023-05-19T04:59:54;4.50;;;2.70;;
15063;SDS011;7631;52.088;5.088;2023-05-19T05:02:24;4.70;;;2.90;;
15063;SDS011;7631;52.088;5.088;2023-05-19T05:04:51;3.40;;;2.30;;
15063;SDS011;7631;52.088;5.088;2023-05-19T05:07:18;5.23;;;2.87;;
15063;SDS011;7631;52.088;5.088;2023-05-19T05:09:43;4.67;;;2.47;;
15063;SDS011;7631;52.088;5.088;2023-05-19T05:12:09;5.10;;;2.93;;
15063;SDS011;7631;52.088;5.088;2023-05-19T05:14:34;4.73;;;2.87;;
15063;SDS011;7631;52.088;5.088;2023-05-19T05:17:00;3.80;;;2.60;;
15063;SDS011;7631;52.088;5.088;2023-05-19T05:19:26;4.10;;;2.50;;
15063;SDS011;7631;52.088;5.088;2023-05-19T05:21:51;4.07;;;2.47;;
15063;SDS011;7631;52.088;5.088;2023-05-19T05:24:17;6.03;;;2.93;;
15063;SDS011;7631;52.088;5.088;2023-05-19T05:26:42;3.00;;;2.40;;
15063;SDS011;7631;52.088;5.088;2023-05-19T05:29:08;3.73;;;2.77;;
15063;SDS011;7631;52.088;5.088;2023-05-19T05:31:33;5.23;;;2.83;;
15063;SDS011;7631;52.088;5.088;2023-05-19T05:33:59;3.70;;;2.80;;
15063;SDS011;7631;52.088;5.088;2023-05-19T05:36:24;4.07;;;2.93;;
15063;SDS011;7631;52.088;5.088;2023-05-19T05:38:49;3.67;;;2.67;;
15063;SDS011;7631;52.088;5.088;2023-05-19T05:41:15;3.30;;;2.57;;
15063;SDS011;7631;52.088;5.088;2023-05-19T05:43:40;3.30;;;2.40;;
15063;SDS011;7631;52.088;5.088;2023-05-19T05:46:05;2.50;;;2.13;;
15063;SDS011;7631;52.088;5.088;2023-05-19T05:48:30;4.07;;;2.50;;
15063;SDS011;7631;52.088;5.088;2023-05-19T05:50:56;3.90;;;2.93;;
15063;SDS011;7631;52.088;5.088;2023-05-19T05:53:21;4.10;;;2.60;;
15063;SDS011;7631;52.088;5.088;2023-05-19T05:55:48;4.30;;;2.60;;
15063;SDS011;7631;52.088;5.088;2023-05-19T05:58:14;5.23;;;2.77;;
15063;SDS011;7631;52.088;5.088;2023-05-19T06:00:40;6.07;;;2.80;;
15063;SDS011;7631;52.088;5.088;2023-05-19T06:03:07;3.13;;;2.50;;
15063;SDS011;7631;52.088;5.088;2023-05-19T06:05:33;4.73;;;2.70;;
15063;SDS011;7631;52.088;5.088;2023-05-19T06:07:58;4.43;;;2.67;;
15063;SDS011;7631;52.088;5.088;2023-05-19T06:10:24;5.87;;;2.83;;
15063;SDS011;7631;52.088;5.088;2023-05-19T06:12:49;4.57;;;2.77;;
15063;SDS011;7631;52.088;5.088;2023-05-19T06:15:14;4.23;;;2.60;;
15063;SDS011;7631;52.088;5.088;2023-05-19T06:17:39;4.10;;;2.93;;
15063;SDS011;7631;52.088;5.088;2023-05-19T06:20:05;5.63;;;3.27;;
15063;SDS011;7631;52.088;5.088;2023-05-19T06:22:30;4.03;;;2.80;;
15063;SDS011;7631;52.088;5.088;2023-05-19T06:24:56;4.80;;;3.23;;
15063;SDS011;7631;52.088;5.088;2023-05-19T06:27:21;4.10;;;3.23;;
15063;SDS011;7631;52.088;5.088;2023-05-19T06:29:46;3.47;;;2.87;;
15063;SDS011;7631;52.088;5.088;2023-05-19T06:32:11;3.43;;;2.60;;
15063;SDS011;7631;52.088;5.088;2023-05-19T06:34:37;4.70;;;2.47;;
15063;SDS011;7631;52.088;5.088;2023-05-19T06:37:04;4.27;;;2.83;;
15063;SDS011;7631;52.088;5.088;2023-05-19T06:39:29;5.40;;;2.70;;
15063;SDS011;7631;52.088;5.088;2023-05-19T06:41:54;3.63;;;2.83;;
15063;SDS011;7631;52.088;5.088;2023-05-19T06:44:21;4.37;;;2.80;;
15063;SDS011;7631;52.088;5.088;2023-05-19T06:46:46;4.43;;;2.70;;
15063;SDS011;7631;52.088;5.088;2023-05-19T06:49:11;3.90;;;2.83;;
15063;SDS011;7631;52.088;5.088;2023-05-19T06:51:36;4.27;;;2.80;;
15063;SDS011;7631;52.088;5.088;2023-05-19T06:54:01;4.03;;;2.43;;
15063;SDS011;7631;52.088;5.088;2023-05-19T06:56:27;2.93;;;2.63;;
15063;SDS011;7631;52.088;5.088;2023-05-19T06:58:52;4.20;;;2.73;;
15063;SDS011;7631;52.088;5.088;2023-05-19T07:01:17;3.70;;;2.80;;
15063;SDS011;7631;52.088;5.088;2023-05-19T07:03:43;3.80;;;2.70;;
15063;SDS011;7631;52.088;5.088;2023-05-19T07:06:08;3.07;;;2.60;;
15063;SDS011;7631;52.088;5.088;2023-05-19T07:08:33;5.67;;;2.77;;
15063;SDS011;7631;52.088;5.088;2023-05-19T07:10:59;3.10;;;2.63;;
15063;SDS011;7631;52.088;5.088;2023-05-19T07:13:24;3.47;;;2.70;;
15063;SDS011;7631;52.088;5.088;2023-05-19T07:15:49;4.13;;;2.83;;
15063;SDS011;7631;52.088;5.088;2023-05-19T07:18:16;5.70;;;2.57;;
15063;SDS011;7631;52.088;5.088;2023-05-19T07:20:41;4.30;;;2.93;;
15063;SDS011;7631;52.088;5.088;2023-05-19T07:23:06;6.57;;;3.30;;
15063;SDS011;7631;52.088;5.088;2023-05-19T07:25:32;5.47;;;3.10;;
15063;SDS011;7631;52.088;5.088;2023-05-19T07:27:57;4.70;;;3.20;;
15063;SDS011;7631;52.088;5.088;2023-05-19T07:30:22;4.13;;;2.80;;
15063;SDS011;7631;52.088;5.088;2023-05-19T07:32:48;3.30;;;2.50;;
15063;SDS011;7631;52.088;5.088;2023-05-19T07:35:13;3.77;;;2.90;;
15063;SDS011;7631;52.088;5.088;2023-05-19T07:37:38;4.30;;;2.90;;
15063;SDS011;7631;52.088;5.088;2023-05-19T07:40:04;5.03;;;2.53;;
15063;SDS011;7631;52.088;5.088;2023-05-19T07:42:30;3.83;;;2.70;;
15063;SDS011;7631;52.088;5.088;2023-05-19T07:44:56;4.30;;;2.60;;
15063;SDS011;7631;52.088;5.088;2023-05-19T07:47:21;5.57;;;2.70;;
15063;SDS011;7631;52.088;5.088;2023-05-19T07:49:47;3.23;;;2.73;;
15063;SDS011;7631;52.088;5.088;2023-05-19T07:52:12;4.40;;;2.87;;
15063;SDS011;7631;52.088;5.088;2023-05-19T07:54:37;5.50;;;2.83;;
15063;SDS011;7631;52.088;5.088;2023-05-19T07:57:02;4.63;;;2.73;;
15063;SDS011;7631;52.088;5.088;2023-05-19T07:59:30;6.43;;;3.27;;
15063;SDS011;7631;52.088;5.088;2023-05-19T08:01:56;5.30;;;2.70;;
15063;SDS011;7631;52.088;5.088;2023-05-19T08:04:21;4.60;;;2.80;;
15063;SDS011;7631;52.088;5.088;2023-05-19T08:06:46;3.50;;;2.60;;
15063;SDS011;7631;52.088;5.088;2023-05-19T08:09:11;3.97;;;2.77;;
15063;SDS011;7631;52.088;5.088;2023-05-19T08:11:36;3.83;;;2.90;;
15063;SDS011;7631;52.088;5.088;2023-05-19T08:14:02;4.40;;;2.50;;
15063;SDS011;7631;52.088;5.088;2023-05-19T08:16:27;5.13;;;2.90;;
15063;SDS011;7631;52.088;5.088;2023-05-19T08:18:52;2.83;;;2.20;;
15063;SDS011;7631;52.088;5.088;2023-05-19T08:21:18;4.47;;;2.80;;
15063;SDS011;7631;52.088;5.088;2023-05-19T08:23:44;4.50;;;2.53;;
15063;SDS011;7631;52.088;5.088;2023-05-19T08:26:09;3.57;;;2.40;;
15063;SDS011;7631;52.088;5.088;2023-05-19T08:28:34;5.03;;;2.43;;
15063;SDS011;7631;52.088;5.088;2023-05-19T08:31:00;4.97;;;3.10;;
15063;SDS011;7631;52.088;5.088;2023-05-19T08:33:25;3.27;;;2.60;;
15063;SDS011;7631;52.088;5.088;2023-05-19T08:35:50;3.17;;;2.57;;
15063;SDS011;7631;52.088;5.088;2023-05-19T08:38:15;5.13;;;2.83;;
15063;SDS011;7631;52.088;5.088;2023-05-19T08:40:41;3.07;;;2.70;;
15063;SDS011;7631;52.088;5.088;2023-05-19T08:43:06;4.77;;;2.67;;
15063;SDS011;7631;52.088;5.088;2023-05-19T08:45:32;3.90;;;2.80;;
15063;SDS011;7631;52.088;5.088;2023-05-19T08:47:58;3.87;;;2.40;;
15063;SDS011;7631;52.088;5.088;2023-05-19T08:50:25;4.43;;;2.73;;
15063;SDS011;7631;52.088;5.088;2023-05-19T08:53:02;4.00;;;2.20;;
15063;SDS011;7631;52.088;5.088;2023-05-19T08:57:57;4.83;;;2.60;;
15063;SDS011;7631;52.088;5.088;2023-05-19T09:00:23;4.70;;;2.53;;
15063;SDS011;7631;52.088;5.088;2023-05-19T09:02:48;3.67;;;2.63;;
15063;SDS011;7631;52.088;5.088;2023-05-19T09:05:15;3.60;;;2.30;;
15063;SDS011;7631;52.088;5.088;2023-05-19T09:07:41;3.75;;;2.67;;
15063;SDS011;7631;52.088;5.088;2023-05-19T09:10:07;5.17;;;2.80;;
15063;SDS011;7631;52.088;5.088;2023-05-19T09:12:33;3.70;;;2.37;;
15063;SDS011;7631;52.088;5.088;2023-05-19T09:14:58;3.80;;;2.53;;
15063;SDS011;7631;52.088;5.088;2023-05-19T09:17:23;3.50;;;2.40;;
15063;SDS011;7631;52.088;5.088;2023-05-19T09:19:48;3.10;;;2.00;;
15063;SDS011;7631;52.088;5.088;2023-05-19T09:22:15;4.37;;;2.37;;
15063;SDS011;7631;52.088;5.088;2023-05-19T09:24:43;4.87;;;2.10;;
15063;SDS011;7631;52.088;5.088;2023-05-19T09:27:08;4.10;;;2.17;;
15063;SDS011;7631;52.088;5.088;2023-05-19T09:29:33;4.73;;;2.40;;
15063;SDS011;7631;52.088;5.088;2023-05-19T09:31:58;3.70;;;2.00;;
15063;SDS011;7631;52.088;5.088;2023-05-19T09:34:30;3.87;;;2.33;;
15063;SDS011;7631;52.088;5.088;2023-05-19T09:36:55;4.17;;;2.00;;
15063;SDS011;7631;52.088;5.088;2023-05-19T09:39:22;3.13;;;2.00;;
15063;SDS011;7631;52.088;5.088;2023-05-19T09:41:51;3.07;;;2.03;;
15063;SDS011;7631;52.088;5.088;2023-05-19T09:44:21;3.30;;;1.83;;
15063;SDS011;7631;52.088;5.088;2023-05-19T09:46:48;2.30;;;1.73;;
15063;SDS011;7631;52.088;5.088;2023-05-19T09:49:17;2.90;;;1.70;;
15063;SDS011;7631;52.088;5.088;2023-05-19T09:51:42;2.53;;;1.80;;
15063;SDS011;7631;52.088;5.088;2023-05-19T09:54:08;3.40;;;1.93;;
15063;SDS011;7631;52.088;5.088;2023-05-19T09:56:38;3.80;;;1.97;;
15063;SDS011;7631;52.088;5.088;2023-05-19T09:59:03;3.43;;;1.90;;
15063;SDS011;7631;52.088;5.088;2023-05-19T10:01:32;2.97;;;1.60;;
15063;SDS011;7631;52.088;5.088;2023-05-19T10:04:01;3.00;;;1.60;;
15063;SDS011;7631;52.088;5.088;2023-05-19T10:06:27;2.57;;;1.80;;
15063;SDS011;7631;52.088;5.088;2023-05-19T10:08:52;4.57;;;1.87;;
15063;SDS011;7631;52.088;5.088;2023-05-19T10:11:18;2.97;;;1.58;;
15063;SDS011;7631;52.088;5.088;2023-05-19T10:13:45;2.28;;;1.48;;
15063;SDS011;7631;52.088;5.088;2023-05-19T10:16:11;3.42;;;1.95;;
15063;SDS011;7631;52.088;5.088;2023-05-19T10:18:37;3.90;;;2.13;;
15063;SDS011;7631;52.088;5.088;2023-05-19T10:21:03;3.28;;;2.03;;
15063;SDS011;7631;52.088;5.088;2023-05-19T10:23:29;2.92;;;2.10;;
15063;SDS011;7631;52.088;5.088;2023-05-19T10:25:56;2.22;;;1.58;;
15063;SDS011;7631;52.088;5.088;2023-05-19T10:28:23;4.13;;;1.92;;
15063;SDS011;7631;52.088;5.088;2023-05-19T10:30:52;3.58;;;1.77;;
15063;SDS011;7631;52.088;5.088;2023-05-19T10:33:18;3.95;;;1.60;;
15063;SDS011;7631;52.088;5.088;2023-05-19T10:36:01;4.05;;;2.03;;
15063;SDS011;7631;52.088;5.088;2023-05-19T10:38:40;4.23;;;2.20;;
15063;SDS011;7631;52.088;5.088;2023-05-19T10:46:12;3.50;;;2.10;;
15063;SDS011;7631;52.088;5.088;2023-05-19T10:48:37;4.00;;;1.98;;
15063;SDS011;7631;52.088;5.088;2023-05-19T10:51:07;3.60;;;1.63;;
15063;SDS011;7631;52.088;5.088;2023-05-19T10:53:36;4.22;;;2.03;;
15063;SDS011;7631;52.088;5.088;2023-05-19T10:56:04;3.97;;;1.90;;
15063;SDS011;7631;52.088;5.088;2023-05-19T10:58:38;2.45;;;1.70;;
15063;SDS011;7631;52.088;5.088;2023-05-19T11:01:07;2.75;;;1.77;;
15063;SDS011;7631;52.088;5.088;2023-05-19T11:03:46;4.18;;;1.90;;
15063;SDS011;7631;52.088;5.088;2023-05-19T11:06:16;3.42;;;1.67;;
15063;SDS011;7631;52.088;5.088;2023-05-19T11:08:41;5.10;;;2.10;;
15063;SDS011;7631;52.088;5.088;2023-05-19T11:11:13;4.07;;;1.85;;
15063;SDS011;7631;52.088;5.088;2023-05-19T11:13:39;4.03;;;2.05;;
15063;SDS011;7631;52.088;5.088;2023-05-19T11:16:07;2.13;;;1.60;;
15063;SDS011;7631;52.088;5.088;2023-05-19T11:18:32;3.13;;;1.95;;
15063;SDS011;7631;52.088;5.088;2023-05-19T11:20:59;2.22;;;1.67;;
15063;SDS011;7631;52.088;5.088;2023-05-19T11:23:25;4.25;;;2.10;;
15063;SDS011;7631;52.088;5.088;2023-05-19T11:25:51;3.15;;;1.95;;
15063;SDS011;7631;52.088;5.088;2023-05-19T11:28:18;3.05;;;1.73;;
15063;SDS011;7631;52.088;5.088;2023-05-19T11:30:45;2.47;;;1.85;;
15063;SDS011;7631;52.088;5.088;2023-05-19T11:33:13;2.65;;;2.08;;
15063;SDS011;7631;52.088;5.088;2023-05-19T11:35:38;2.88;;;2.20;;
15063;SDS011;7631;52.088;5.088;2023-05-19T11:38:06;4.20;;;2.30;;
15063;SDS011;7631;52.088;5.088;2023-05-19T11:40:32;2.22;;;1.63;;
15063;SDS011;7631;52.088;5.088;2023-05-19T11:42:57;3.50;;;1.92;;
15063;SDS011;7631;52.088;5.088;2023-05-19T11:45:23;4.40;;;2.25;;
15063;SDS011;7631;52.088;5.088;2023-05-19T11:47:48;3.80;;;1.65;;
15063;SDS011;7631;52.088;5.088;2023-05-19T11:50:13;2.25;;;1.77;;
15063;SDS011;7631;52.088;5.088;2023-05-19T11:52:43;2.92;;;1.83;;
15063;SDS011;7631;52.088;5.088;2023-05-19T11:55:08;3.95;;;2.15;;
15063;SDS011;7631;52.088;5.088;2023-05-19T11:57:38;3.05;;;1.98;;
15063;SDS011;7631;52.088;5.088;2023-05-19T12:00:04;2.70;;;1.60;;
15063;SDS011;7631;52.088;5.088;2023-05-19T12:02:32;3.45;;;1.73;;
15063;SDS011;7631;52.088;5.088;2023-05-19T12:04:59;3.20;;;2.05;;
15063;SDS011;7631;52.088;5.088;2023-05-19T12:07:24;2.20;;;1.75;;
15063;SDS011;7631;52.088;5.088;2023-05-19T12:09:50;2.50;;;1.75;;
15063;SDS011;7631;52.088;5.088;2023-05-19T12:12:16;4.22;;;2.05;;
15063;SDS011;7631;52.088;5.088;2023-05-19T12:14:42;3.65;;;1.83;;
15063;SDS011;7631;52.088;5.088;2023-05-19T12:19:37;2.72;;;1.92;;
15063;SDS011;7631;52.088;5.088;2023-05-19T12:22:02;3.70;;;1.85;;
15063;SDS011;7631;52.088;5.088;2023-05-19T12:24:27;3.53;;;1.90;;
15063;SDS011;7631;52.088;5.088;2023-05-19T12:27:03;3.45;;;2.05;;
15063;SDS011;7631;52.088;5.088;2023-05-19T12:29:30;3.83;;;2.10;;
15063;SDS011;7631;52.088;5.088;2023-05-19T12:31:55;4.10;;;1.77;;
15063;SDS011;7631;52.088;5.088;2023-05-19T12:34:20;3.17;;;1.80;;
15063;SDS011;7631;52.088;5.088;2023-05-19T12:36:47;4.55;;;1.90;;
15063;SDS011;7631;52.088;5.088;2023-05-19T12:39:12;3.83;;;2.05;;
15063;SDS011;7631;52.088;5.088;2023-05-19T12:41:38;3.42;;;2.00;;
15063;SDS011;7631;52.088;5.088;2023-05-19T12:44:11;3.60;;;2.05;;
15063;SDS011;7631;52.088;5.088;2023-05-19T12:46:38;3.08;;;1.85;;
15063;SDS011;7631;52.088;5.088;2023-05-19T12:49:04;3.03;;;2.00;;
15063;SDS011;7631;52.088;5.088;2023-05-19T12:51:29;6.10;;;1.90;;
15063;SDS011;7631;52.088;5.088;2023-05-19T12:53:54;3.03;;;2.05;;
15063;SDS011;7631;52.088;5.088;2023-05-19T12:56:20;2.78;;;1.70;;
15063;SDS011;7631;52.088;5.088;2023-05-19T12:58:46;2.95;;;1.80;;
15063;SDS011;7631;52.088;5.088;2023-05-19T13:01:14;4.45;;;1.88;;
15063;SDS011;7631;52.088;5.088;2023-05-19T13:03:40;3.63;;;2.15;;
15063;SDS011;7631;52.088;5.088;2023-05-19T13:06:06;2.63;;;1.92;;
15063;SDS011;7631;52.088;5.088;2023-05-19T13:08:31;2.97;;;1.90;;
15063;SDS011;7631;52.088;5.088;2023-05-19T13:10:56;3.20;;;2.10;;
15063;SDS011;7631;52.088;5.088;2023-05-19T13:13:21;2.92;;;1.70;;
15063;SDS011;7631;52.088;5.088;2023-05-19T13:15:47;4.10;;;2.17;;
15063;SDS011;7631;52.088;5.088;2023-05-19T13:18:12;2.72;;;1.92;;
15063;SDS011;7631;52.088;5.088;2023-05-19T13:20:39;3.78;;;2.10;;
15063;SDS011;7631;52.088;5.088;2023-05-19T13:23:04;2.72;;;1.95;;
15063;SDS011;7631;52.088;5.088;2023-05-19T13:25:33;3.05;;;1.80;;
15063;SDS011;7631;52.088;5.088;2023-05-19T13:27:59;3.17;;;2.13;;
15063;SDS011;7631;52.088;5.088;2023-05-19T13:30:25;4.65;;;2.22;;
15063;SDS011;7631;52.088;5.088;2023-05-19T13:32:51;3.55;;;1.90;;
15063;SDS011;7631;52.088;5.088;2023-05-19T13:35:16;3.05;;;2.08;;
15063;SDS011;7631;52.088;5.088;2023-05-19T13:37:41;3.85;;;2.10;;
15063;SDS011;7631;52.088;5.088;2023-05-19T13:40:07;3.78;;;1.85;;
15063;SDS011;7631;52.088;5.088;2023-05-19T13:42:33;3.78;;;2.28;;
15063;SDS011;7631;52.088;5.088;2023-05-19T13:44:59;4.55;;;2.10;;
15063;SDS011;7631;52.088;5.088;2023-05-19T13:47:24;3.10;;;1.90;;
15063;SDS011;7631;52.088;5.088;2023-05-19T13:49:50;3.05;;;1.98;;
15063;SDS011;7631;52.088;5.088;2023-05-19T13:52:15;2.97;;;2.10;;
15063;SDS011;7631;52.088;5.088;2023-05-19T13:54:41;3.38;;;2.20;;
15063;SDS011;7631;52.088;5.088;2023-05-19T13:57:06;4.27;;;1.90;;
15063;SDS011;7631;52.088;5.088;2023-05-19T13:59:31;4.13;;;2.30;;
15063;SDS011;7631;52.088;5.088;2023-05-19T14:01:56;3.00;;;2.08;;
15063;SDS011;7631;52.088;5.088;2023-05-19T14:04:22;4.28;;;2.17;;
15063;SDS011;7631;52.088;5.088;2023-05-19T14:06:50;4.10;;;2.42;;
15063;SDS011;7631;52.088;5.088;2023-05-19T14:09:15;3.67;;;2.17;;
15063;SDS011;7631;52.088;5.088;2023-05-19T14:11:41;5.15;;;3.20;;
15063;SDS011;7631;52.088;5.088;2023-05-19T14:14:06;3.88;;;2.40;;
15063;SDS011;7631;52.088;5.088;2023-05-19T14:16:31;3.75;;;2.42;;
15063;SDS011;7631;52.088;5.088;2023-05-19T14:18:56;3.38;;;2.15;;
15063;SDS011;7631;52.088;5.088;2023-05-19T14:21:22;4.15;;;2.17;;
15063;SDS011;7631;52.088;5.088;2023-05-19T14:23:48;4.63;;;2.22;;
15063;SDS011;7631;52.088;5.088;2023-05-19T14:26:13;4.00;;;2.65;;
15063;SDS011;7631;52.088;5.088;2023-05-19T14:28:38;3.80;;;2.05;;
15063;SDS011;7631;52.088;5.088;2023-05-19T14:31:03;3.20;;;2.13;;
15063;SDS011;7631;52.088;5.088;2023-05-19T14:33:29;3.13;;;2.05;;
15063;SDS011;7631;52.088;5.088;2023-05-19T14:35:55;3.25;;;2.22;;
15063;SDS011;7631;52.088;5.088;2023-05-19T14:38:23;3.83;;;2.15;;
15063;SDS011;7631;52.088;5.088;2023-05-19T14:40:49;2.80;;;1.90;;
15063;SDS011;7631;52.088;5.088;2023-05-19T14:43:14;4.20;;;2.45;;
15063;SDS011;7631;52.088;5.088;2023-05-19T14:45:42;4.30;;;2.30;;
15063;SDS011;7631;52.088;5.088;2023-05-19T14:48:08;4.40;;;2.50;;
15063;SDS011;7631;52.088;5.088;2023-05-19T14:50:35;3.75;;;2.30;;
15063;SDS011;7631;52.088;5.088;2023-05-19T14:53:01;6.47;;;2.60;;
15063;SDS011;7631;52.088;5.088;2023-05-19T14:55:26;7.33;;;4.30;;
15063;SDS011;7631;52.088;5.088;2023-05-19T14:57:51;7.20;;;3.15;;
15063;SDS011;7631;52.088;5.088;2023-05-19T15:00:16;4.28;;;2.20;;
15063;SDS011;7631;52.088;5.088;2023-05-19T15:02:42;3.28;;;2.15;;
15063;SDS011;7631;52.088;5.088;2023-05-19T15:05:07;3.60;;;2.40;;
15063;SDS011;7631;52.088;5.088;2023-05-19T15:07:32;3.85;;;2.03;;
15063;SDS011;7631;52.088;5.088;2023-05-19T15:09:57;2.95;;;2.10;;
15063;SDS011;7631;52.088;5.088;2023-05-19T15:12:23;4.15;;;2.38;;
15063;SDS011;7631;52.088;5.088;2023-05-19T15:14:48;6.82;;;2.45;;
15063;SDS011;7631;52.088;5.088;2023-05-19T15:17:13;5.88;;;2.97;;
15063;SDS011;7631;52.088;5.088;2023-05-19T15:19:39;4.60;;;2.50;;
15063;SDS011;7631;52.088;5.088;2023-05-19T15:22:07;5.45;;;2.42;;
15063;SDS011;7631;52.088;5.088;2023-05-19T15:24:32;6.43;;;2.63;;
15063;SDS011;7631;52.088;5.088;2023-05-19T15:26:57;4.45;;;2.20;;
15063;SDS011;7631;52.088;5.088;2023-05-19T15:29:23;4.63;;;2.30;;